sensor_id;sensor_type;location;lat;lon;timestamp;temperature;humidity
20483;DHT22;10400;53.198;6.592;2024-03-17T00:02:21;6.40;99.90
20483;DHT22;10400;53.198;6.592;2024-03-17T00:04:46;6.40;99.90
20483;DHT22;10400;53.198;6.592;2024-03-17T00:07:12;6.30;99.90
20483;DHT22;10400;53.198;6.592;2024-03-17T00:09:38;6.30;99.90
20483;DHT22;10400;53.198;6.592;2024-03-17T00:12:04;6.30;99.90
20483;DHT22;10400;53.198;6.592;2024-03-17T00:14:30;6.30;99.90
20483;DHT22;10400;53.198;6.592;2024-03-17T00:16:56;6.30;99.90
20483;DHT22;10400;53.198;6.592;2024-03-17T00:19:23;6.20;99.90
20483;DHT22;10400;53.198;6.592;2024-03-17T00:21:49;6.20;99.90
20483;DHT22;10400;53.198;6.592;2024-03-17T00:24:19;6.20;99.90
20483;DHT22;10400;53.198;6.592;2024-03-17T00:26:48;6.20;99.90
20483;DHT22;10400;53.198;6.592;2024-03-17T00:29:14;6.20;99.90
20483;DHT22;10400;53.198;6.592;2024-03-17T00:31:41;6.20;99.90
20483;DHT22;10400;53.198;6.592;2024-03-17T00:34:06;6.10;99.90
20483;DHT22;10400;53.198;6.592;2024-03-17T00:36:32;6.10;99.90
20483;DHT22;10400;53.198;6.592;2024-03-17T00:38:58;6.10;99.90
20483;DHT22;10400;53.198;6.592;2024-03-17T00:41:23;6.00;99.90
20483;DHT22;10400;53.198;6.592;2024-03-17T00:43:50;6.00;99.90
20483;DHT22;10400;53.198;6.592;2024-03-17T00:46:18;5.90;99.90
20483;DHT22;10400;53.198;6.592;2024-03-17T00:48:47;5.90;99.90
20483;DHT22;10400;53.198;6.592;2024-03-17T00:51:14;5.80;99.90
20483;DHT22;10400;53.198;6.592;2024-03-17T00:53:39;5.80;99.90
20483;DHT22;10400;53.198;6.592;2024-03-17T00:56:05;5.80;99.90
20483;DHT22;10400;53.198;6.592;2024-03-17T00:58:32;5.70;99.90
20483;DHT22;10400;53.198;6.592;2024-03-17T01:00:57;5.60;99.90
20483;DHT22;10400;53.198;6.592;2024-03-17T01:03:23;5.60;99.90
20483;DHT22;10400;53.198;6.592;2024-03-17T01:05:48;5.60;99.90
20483;DHT22;10400;53.198;6.592;2024-03-17T01:08:18;5.60;99.90
20483;DHT22;10400;53.198;6.592;2024-03-17T01:10:44;5.50;99.90
20483;DHT22;10400;53.198;6.592;2024-03-17T01:13:10;5.50;99.90
20483;DHT22;10400;53.198;6.592;2024-03-17T01:15:37;5.40;99.90
20483;DHT22;10400;53.198;6.592;2024-03-17T01:18:06;5.40;99.90
20483;DHT22;10400;53.198;6.592;2024-03-17T01:20:36;5.40;99.90
20483;DHT22;10400;53.198;6.592;2024-03-17T01:23:03;5.30;99.90
20483;DHT22;10400;53.198;6.592;2024-03-17T01:25:28;5.30;99.90
20483;DHT22;10400;53.198;6.592;2024-03-17T01:27:58;5.30;99.90
20483;DHT22;10400;53.198;6.592;2024-03-17T01:30:23;5.30;99.90
20483;DHT22;10400;53.198;6.592;2024-03-17T01:32:50;5.20;99.90
20483;DHT22;10400;53.198;6.592;2024-03-17T01:35:17;5.20;99.90
20483;DHT22;10400;53.198;6.592;2024-03-17T01:37:42;5.10;99.90
20483;DHT22;10400;53.198;6.592;2024-03-17T01:40:09;5.10;99.90
20483;DHT22;10400;53.198;6.592;2024-03-17T01:42:37;5.10;99.90
20483;DHT22;10400;53.198;6.592;2024-03-17T01:45:32;5.00;99.90
20483;DHT22;10400;53.198;6.592;2024-03-17T01:48:02;5.00;99.90
20483;DHT22;10400;53.198;6.592;2024-03-17T01:50:37;4.90;99.90
20483;DHT22;10400;53.198;6.592;2024-03-17T01:53:05;4.90;99.90
20483;DHT22;10400;53.198;6.592;2024-03-17T01:55:40;4.90;99.90
20483;DHT22;10400;53.198;6.592;2024-03-17T01:58:06;4.90;99.90
20483;DHT22;10400;53.198;6.592;2024-03-17T02:00:33;4.80;99.90
20483;DHT22;10400;53.198;6.592;2024-03-17T02:03:02;4.80;99.90
20483;DHT22;10400;53.198;6.592;2024-03-17T02:05:29;4.80;99.90
20483;DHT22;10400;53.198;6.592;2024-03-17T02:07:54;4.80;99.90
20483;DHT22;10400;53.198;6.592;2024-03-17T02:10:20;4.80;99.90
20483;DHT22;10400;53.198;6.592;2024-03-17T02:12:47;4.80;99.90
20483;DHT22;10400;53.198;6.592;2024-03-17T02:15:13;4.70;99.90
20483;DHT22;10400;53.198;6.592;2024-03-17T02:17:39;4.70;99.90
20483;DHT22;10400;53.198;6.592;2024-03-17T02:20:05;4.70;99.90
20483;DHT22;10400;53.198;6.592;2024-03-17T02:22:37;4.70;99.90
20483;DHT22;10400;53.198;6.592;2024-03-17T02:25:03;4.70;99.90
20483;DHT22;10400;53.198;6.592;2024-03-17T02:27:28;4.60;99.90
20483;DHT22;10400;53.198;6.592;2024-03-17T02:29:55;4.70;99.90
20483;DHT22;10400;53.198;6.592;2024-03-17T02:32:20;4.70;99.90
20483;DHT22;10400;53.198;6.592;2024-03-17T02:34:48;4.60;99.90
20483;DHT22;10400;53.198;6.592;2024-03-17T02:37:13;4.60;99.90
20483;DHT22;10400;53.198;6.592;2024-03-17T02:39:39;4.60;99.90
20483;DHT22;10400;53.198;6.592;2024-03-17T02:42:06;4.60;99.90
20483;DHT22;10400;53.198;6.592;2024-03-17T02:44:33;4.50;99.90
20483;DHT22;10400;53.198;6.592;2024-03-17T02:47:00;4.50;99.90
20483;DHT22;10400;53.198;6.592;2024-03-17T02:49:27;4.50;99.90
20483;DHT22;10400;53.198;6.592;2024-03-17T02:51:54;4.50;99.90
20483;DHT22;10400;53.198;6.592;2024-03-17T02:54:21;4.50;99.90
20483;DHT22;10400;53.198;6.592;2024-03-17T02:56:47;4.50;99.90
20483;DHT22;10400;53.198;6.592;2024-03-17T02:59:12;4.50;99.90
20483;DHT22;10400;53.198;6.592;2024-03-17T03:01:38;4.50;99.90
20483;DHT22;10400;53.198;6.592;2024-03-17T03:04:05;4.60;99.90
20483;DHT22;10400;53.198;6.592;2024-03-17T03:06:31;4.60;99.90
20483;DHT22;10400;53.198;6.592;2024-03-17T03:08:57;4.60;99.90
20483;DHT22;10400;53.198;6.592;2024-03-17T03:11:22;4.70;99.90
20483;DHT22;10400;53.198;6.592;2024-03-17T03:13:48;4.70;99.90
20483;DHT22;10400;53.198;6.592;2024-03-17T03:16:14;4.80;99.90
20483;DHT22;10400;53.198;6.592;2024-03-17T03:18:40;4.90;99.90
20483;DHT22;10400;53.198;6.592;2024-03-17T03:21:07;4.90;99.90
20483;DHT22;10400;53.198;6.592;2024-03-17T03:23:33;4.90;99.90
20483;DHT22;10400;53.198;6.592;2024-03-17T03:26:01;5.00;99.90
20483;DHT22;10400;53.198;6.592;2024-03-17T03:28:29;5.10;99.90
20483;DHT22;10400;53.198;6.592;2024-03-17T03:30:55;5.10;99.90
20483;DHT22;10400;53.198;6.592;2024-03-17T03:33:21;5.10;99.90
20483;DHT22;10400;53.198;6.592;2024-03-17T03:35:48;5.10;99.90
20483;DHT22;10400;53.198;6.592;2024-03-17T03:38:17;5.20;99.90
20483;DHT22;10400;53.198;6.592;2024-03-17T03:40:43;5.30;99.90
20483;DHT22;10400;53.198;6.592;2024-03-17T03:43:10;5.20;99.90
20483;DHT22;10400;53.198;6.592;2024-03-17T03:45:36;5.20;99.90
20483;DHT22;10400;53.198;6.592;2024-03-17T03:48:02;5.30;99.90
20483;DHT22;10400;53.198;6.592;2024-03-17T03:50:28;5.30;99.90
20483;DHT22;10400;53.198;6.592;2024-03-17T03:52:54;5.30;99.90
20483;DHT22;10400;53.198;6.592;2024-03-17T03:55:20;5.30;99.90
20483;DHT22;10400;53.198;6.592;2024-03-17T03:57:46;5.30;99.90
20483;DHT22;10400;53.198;6.592;2024-03-17T04:00:14;5.30;99.90
20483;DHT22;10400;53.198;6.592;2024-03-17T04:02:41;5.30;99.90
20483;DHT22;10400;53.198;6.592;2024-03-17T04:05:07;5.40;99.90
20483;DHT22;10400;53.198;6.592;2024-03-17T04:07:33;5.50;99.90
20483;DHT22;10400;53.198;6.592;2024-03-17T04:10:03;5.50;99.90
20483;DHT22;10400;53.198;6.592;2024-03-17T04:12:28;5.50;99.90
20483;DHT22;10400;53.198;6.592;2024-03-17T04:14:59;5.40;99.90
20483;DHT22;10400;53.198;6.592;2024-03-17T04:17:25;5.40;99.90
20483;DHT22;10400;53.198;6.592;2024-03-17T04:19:51;5.50;99.90
20483;DHT22;10400;53.198;6.592;2024-03-17T04:22:18;5.40;99.90
20483;DHT22;10400;53.198;6.592;2024-03-17T04:24:45;5.50;99.90
20483;DHT22;10400;53.198;6.592;2024-03-17T04:27:10;5.40;99.90
20483;DHT22;10400;53.198;6.592;2024-03-17T04:29:36;5.40;99.90
20483;DHT22;10400;53.198;6.592;2024-03-17T04:32:02;5.50;99.90
20483;DHT22;10400;53.198;6.592;2024-03-17T04:34:30;5.50;99.90
20483;DHT22;10400;53.198;6.592;2024-03-17T04:36:57;5.50;99.90
20483;DHT22;10400;53.198;6.592;2024-03-17T04:39:23;5.60;99.90
20483;DHT22;10400;53.198;6.592;2024-03-17T04:41:49;5.60;99.90
20483;DHT22;10400;53.198;6.592;2024-03-17T04:44:16;5.60;99.90
20483;DHT22;10400;53.198;6.592;2024-03-17T04:46:41;5.60;99.90
20483;DHT22;10400;53.198;6.592;2024-03-17T04:49:07;5.70;99.90
20483;DHT22;10400;53.198;6.592;2024-03-17T04:51:34;5.70;99.90
20483;DHT22;10400;53.198;6.592;2024-03-17T04:54:00;5.70;99.90
20483;DHT22;10400;53.198;6.592;2024-03-17T04:56:26;5.70;99.90
20483;DHT22;10400;53.198;6.592;2024-03-17T04:58:51;5.60;99.90
20483;DHT22;10400;53.198;6.592;2024-03-17T05:01:17;5.60;99.90
20483;DHT22;10400;53.198;6.592;2024-03-17T05:03:42;5.60;99.90
20483;DHT22;10400;53.198;6.592;2024-03-17T05:06:08;5.60;99.90
20483;DHT22;10400;53.198;6.592;2024-03-17T05:08:34;5.60;99.90
20483;DHT22;10400;53.198;6.592;2024-03-17T05:11:01;5.60;99.90
20483;DHT22;10400;53.198;6.592;2024-03-17T05:13:31;5.60;99.90
20483;DHT22;10400;53.198;6.592;2024-03-17T05:15:56;5.60;99.90
20483;DHT22;10400;53.198;6.592;2024-03-17T05:18:23;5.60;99.90
20483;DHT22;10400;53.198;6.592;2024-03-17T05:21:00;5.70;99.90
20483;DHT22;10400;53.198;6.592;2024-03-17T05:23:27;5.60;99.90
20483;DHT22;10400;53.198;6.592;2024-03-17T05:25:54;5.60;99.90
20483;DHT22;10400;53.198;6.592;2024-03-17T05:28:20;5.50;99.90
20483;DHT22;10400;53.198;6.592;2024-03-17T05:30:46;5.50;99.90
20483;DHT22;10400;53.198;6.592;2024-03-17T05:33:11;5.60;99.90
20483;DHT22;10400;53.198;6.592;2024-03-17T05:35:37;5.60;99.90
20483;DHT22;10400;53.198;6.592;2024-03-17T05:38:03;5.60;99.90
20483;DHT22;10400;53.198;6.592;2024-03-17T05:40:29;5.50;99.90
20483;DHT22;10400;53.198;6.592;2024-03-17T05:42:56;5.60;99.90
20483;DHT22;10400;53.198;6.592;2024-03-17T05:45:22;5.60;99.90
20483;DHT22;10400;53.198;6.592;2024-03-17T05:47:49;5.60;99.90
20483;DHT22;10400;53.198;6.592;2024-03-17T05:50:15;5.70;99.90
20483;DHT22;10400;53.198;6.592;2024-03-17T05:52:41;5.70;99.90
20483;DHT22;10400;53.198;6.592;2024-03-17T05:55:07;5.70;99.90
20483;DHT22;10400;53.198;6.592;2024-03-17T05:57:33;5.70;99.90
20483;DHT22;10400;53.198;6.592;2024-03-17T05:59:58;5.70;99.90
20483;DHT22;10400;53.198;6.592;2024-03-17T06:02:24;5.70;99.90
20483;DHT22;10400;53.198;6.592;2024-03-17T06:04:50;5.70;99.90
20483;DHT22;10400;53.198;6.592;2024-03-17T06:07:15;5.70;99.90
20483;DHT22;10400;53.198;6.592;2024-03-17T06:09:41;5.70;99.90
20483;DHT22;10400;53.198;6.592;2024-03-17T06:12:06;5.70;99.90
20483;DHT22;10400;53.198;6.592;2024-03-17T06:14:32;5.70;99.90
20483;DHT22;10400;53.198;6.592;2024-03-17T06:16:59;5.70;99.90
20483;DHT22;10400;53.198;6.592;2024-03-17T06:19:25;5.70;99.90
20483;DHT22;10400;53.198;6.592;2024-03-17T06:21:51;5.70;99.90
20483;DHT22;10400;53.198;6.592;2024-03-17T06:24:17;5.70;99.90
20483;DHT22;10400;53.198;6.592;2024-03-17T06:26:42;5.80;99.90
20483;DHT22;10400;53.198;6.592;2024-03-17T06:29:08;5.80;99.90
20483;DHT22;10400;53.198;6.592;2024-03-17T06:31:33;5.90;99.90
20483;DHT22;10400;53.198;6.592;2024-03-17T06:33:59;6.00;99.90
20483;DHT22;10400;53.198;6.592;2024-03-17T06:36:25;6.10;99.90
20483;DHT22;10400;53.198;6.592;2024-03-17T06:38:50;6.20;99.90
20483;DHT22;10400;53.198;6.592;2024-03-17T06:41:16;6.20;99.90
20483;DHT22;10400;53.198;6.592;2024-03-17T06:43:42;6.30;99.90
20483;DHT22;10400;53.198;6.592;2024-03-17T06:46:09;6.30;99.90
20483;DHT22;10400;53.198;6.592;2024-03-17T06:48:35;6.20;99.90
20483;DHT22;10400;53.198;6.592;2024-03-17T06:51:01;6.20;99.90
20483;DHT22;10400;53.198;6.592;2024-03-17T06:53:26;6.30;99.90
20483;DHT22;10400;53.198;6.592;2024-03-17T06:55:56;6.40;99.90
20483;DHT22;10400;53.198;6.592;2024-03-17T06:58:23;6.30;99.90
20483;DHT22;10400;53.198;6.592;2024-03-17T07:00:59;6.40;99.90
20483;DHT22;10400;53.198;6.592;2024-03-17T07:03:29;6.40;99.90
20483;DHT22;10400;53.198;6.592;2024-03-17T07:05:57;6.50;99.90
20483;DHT22;10400;53.198;6.592;2024-03-17T07:08:23;6.60;99.90
20483;DHT22;10400;53.198;6.592;2024-03-17T07:11:06;6.60;99.90
20483;DHT22;10400;53.198;6.592;2024-03-17T07:13:36;6.70;99.90
20483;DHT22;10400;53.198;6.592;2024-03-17T07:16:03;6.80;99.90
20483;DHT22;10400;53.198;6.592;2024-03-17T07:18:31;7.00;99.90
20483;DHT22;10400;53.198;6.592;2024-03-17T07:20:58;7.00;99.90
20483;DHT22;10400;53.198;6.592;2024-03-17T07:23:25;7.20;99.90
20483;DHT22;10400;53.198;6.592;2024-03-17T07:25:55;7.20;99.90
20483;DHT22;10400;53.198;6.592;2024-03-17T07:28:21;7.30;99.90
20483;DHT22;10400;53.198;6.592;2024-03-17T07:30:55;7.40;99.90
20483;DHT22;10400;53.198;6.592;2024-03-17T07:33:21;7.50;99.90
20483;DHT22;10400;53.198;6.592;2024-03-17T07:35:48;7.40;99.90
20483;DHT22;10400;53.198;6.592;2024-03-17T07:38:14;7.50;99.90
20483;DHT22;10400;53.198;6.592;2024-03-17T07:40:41;7.60;99.90
20483;DHT22;10400;53.198;6.592;2024-03-17T07:43:07;7.60;99.90
20483;DHT22;10400;53.198;6.592;2024-03-17T07:45:33;7.70;99.90
20483;DHT22;10400;53.198;6.592;2024-03-17T07:47:58;7.70;99.90
20483;DHT22;10400;53.198;6.592;2024-03-17T07:50:24;7.70;99.90
20483;DHT22;10400;53.198;6.592;2024-03-17T07:52:50;7.70;99.90
20483;DHT22;10400;53.198;6.592;2024-03-17T07:55:15;7.80;99.90
20483;DHT22;10400;53.198;6.592;2024-03-17T07:57:41;7.70;99.90
20483;DHT22;10400;53.198;6.592;2024-03-17T08:00:07;7.70;99.90
20483;DHT22;10400;53.198;6.592;2024-03-17T08:02:44;7.70;99.90
20483;DHT22;10400;53.198;6.592;2024-03-17T08:05:10;7.70;99.90
20483;DHT22;10400;53.198;6.592;2024-03-17T08:07:36;7.80;99.90
20483;DHT22;10400;53.198;6.592;2024-03-17T08:10:01;7.90;99.90
20483;DHT22;10400;53.198;6.592;2024-03-17T08:12:30;7.90;99.90
20483;DHT22;10400;53.198;6.592;2024-03-17T08:14:55;7.90;99.90
20483;DHT22;10400;53.198;6.592;2024-03-17T08:17:21;8.00;99.90
20483;DHT22;10400;53.198;6.592;2024-03-17T08:19:47;8.00;99.90
20483;DHT22;10400;53.198;6.592;2024-03-17T08:22:13;8.00;99.90
20483;DHT22;10400;53.198;6.592;2024-03-17T08:24:40;8.10;99.90
20483;DHT22;10400;53.198;6.592;2024-03-17T08:27:05;8.10;99.90
20483;DHT22;10400;53.198;6.592;2024-03-17T08:29:32;8.20;99.90
20483;DHT22;10400;53.198;6.592;2024-03-17T08:31:59;8.20;99.90
20483;DHT22;10400;53.198;6.592;2024-03-17T08:34:24;8.30;99.90
20483;DHT22;10400;53.198;6.592;2024-03-17T08:36:50;8.40;99.90
20483;DHT22;10400;53.198;6.592;2024-03-17T08:39:16;8.50;99.90
20483;DHT22;10400;53.198;6.592;2024-03-17T08:41:41;8.60;99.90
20483;DHT22;10400;53.198;6.592;2024-03-17T08:44:09;8.60;99.90
20483;DHT22;10400;53.198;6.592;2024-03-17T08:46:35;8.60;99.90
20483;DHT22;10400;53.198;6.592;2024-03-17T08:49:00;8.70;99.90
20483;DHT22;10400;53.198;6.592;2024-03-17T08:51:26;8.70;99.90
20483;DHT22;10400;53.198;6.592;2024-03-17T08:53:53;8.50;99.90
20483;DHT22;10400;53.198;6.592;2024-03-17T08:56:18;8.60;99.90
20483;DHT22;10400;53.198;6.592;2024-03-17T08:58:46;8.70;99.90
20483;DHT22;10400;53.198;6.592;2024-03-17T09:01:14;8.80;99.90
20483;DHT22;10400;53.198;6.592;2024-03-17T09:03:41;8.80;99.90
20483;DHT22;10400;53.198;6.592;2024-03-17T09:06:16;9.00;99.90
20483;DHT22;10400;53.198;6.592;2024-03-17T09:08:42;9.00;99.90
20483;DHT22;10400;53.198;6.592;2024-03-17T09:11:13;9.10;99.90
20483;DHT22;10400;53.198;6.592;2024-03-17T09:13:39;9.20;99.90
20483;DHT22;10400;53.198;6.592;2024-03-17T09:16:05;9.20;99.90
20483;DHT22;10400;53.198;6.592;2024-03-17T09:18:33;9.20;99.90
20483;DHT22;10400;53.198;6.592;2024-03-17T09:21:05;9.10;99.90
20483;DHT22;10400;53.198;6.592;2024-03-17T09:23:31;9.30;99.90
20483;DHT22;10400;53.198;6.592;2024-03-17T09:26:06;9.40;99.90
20483;DHT22;10400;53.198;6.592;2024-03-17T09:28:36;9.40;99.90
20483;DHT22;10400;53.198;6.592;2024-03-17T09:31:02;9.60;99.90
20483;DHT22;10400;53.198;6.592;2024-03-17T09:33:29;9.70;99.90
20483;DHT22;10400;53.198;6.592;2024-03-17T09:36:02;9.80;99.90
20483;DHT22;10400;53.198;6.592;2024-03-17T09:38:29;9.90;99.90
20483;DHT22;10400;53.198;6.592;2024-03-17T09:40:55;9.80;99.90
20483;DHT22;10400;53.198;6.592;2024-03-17T09:43:26;9.90;99.90
20483;DHT22;10400;53.198;6.592;2024-03-17T09:45:53;9.80;99.90
20483;DHT22;10400;53.198;6.592;2024-03-17T09:48:26;9.90;99.90
20483;DHT22;10400;53.198;6.592;2024-03-17T09:50:59;9.90;99.90
20483;DHT22;10400;53.198;6.592;2024-03-17T09:53:26;10.00;99.90
20483;DHT22;10400;53.198;6.592;2024-03-17T09:55:56;10.10;99.90
20483;DHT22;10400;53.198;6.592;2024-03-17T09:58:22;10.10;99.90
20483;DHT22;10400;53.198;6.592;2024-03-17T10:00:47;10.20;99.90
20483;DHT22;10400;53.198;6.592;2024-03-17T10:06:27;10.10;99.90
20483;DHT22;10400;53.198;6.592;2024-03-17T10:08:59;10.10;99.90
20483;DHT22;10400;53.198;6.592;2024-03-17T10:11:33;10.10;99.90
20483;DHT22;10400;53.198;6.592;2024-03-17T10:14:02;10.00;99.90
20483;DHT22;10400;53.198;6.592;2024-03-17T10:16:29;10.10;99.90
20483;DHT22;10400;53.198;6.592;2024-03-17T10:19:27;10.00;99.90
20483;DHT22;10400;53.198;6.592;2024-03-17T10:22:00;9.90;99.90
20483;DHT22;10400;53.198;6.592;2024-03-17T10:24:27;10.00;99.90
20483;DHT22;10400;53.198;6.592;2024-03-17T10:27:01;10.00;99.90
20483;DHT22;10400;53.198;6.592;2024-03-17T10:29:30;10.20;99.90
20483;DHT22;10400;53.198;6.592;2024-03-17T10:32:02;10.20;99.90
20483;DHT22;10400;53.198;6.592;2024-03-17T10:34:29;10.40;99.90
20483;DHT22;10400;53.198;6.592;2024-03-17T10:37:13;10.30;99.90
20483;DHT22;10400;53.198;6.592;2024-03-17T10:39:52;10.40;99.90
20483;DHT22;10400;53.198;6.592;2024-03-17T10:42:27;10.40;99.90
20483;DHT22;10400;53.198;6.592;2024-03-17T10:45:01;10.50;99.90
20483;DHT22;10400;53.198;6.592;2024-03-17T10:47:33;10.50;99.90
20483;DHT22;10400;53.198;6.592;2024-03-17T10:50:00;10.50;99.90
20483;DHT22;10400;53.198;6.592;2024-03-17T10:52:33;10.40;99.90
20483;DHT22;10400;53.198;6.592;2024-03-17T10:55:05;10.40;99.90
20483;DHT22;10400;53.198;6.592;2024-03-17T11:00:06;10.50;99.90
20483;DHT22;10400;53.198;6.592;2024-03-17T11:02:34;10.40;99.90
20483;DHT22;10400;53.198;6.592;2024-03-17T11:05:03;10.50;99.90
20483;DHT22;10400;53.198;6.592;2024-03-17T11:07:30;10.50;99.90
20483;DHT22;10400;53.198;6.592;2024-03-17T11:09:59;10.70;99.90
20483;DHT22;10400;53.198;6.592;2024-03-17T11:12:41;10.70;99.90
20483;DHT22;10400;53.198;6.592;2024-03-17T11:17:53;10.80;99.90
20483;DHT22;10400;53.198;6.592;2024-03-17T11:20:22;10.90;99.90
20483;DHT22;10400;53.198;6.592;2024-03-17T11:22:50;11.00;99.90
20483;DHT22;10400;53.198;6.592;2024-03-17T11:27:58;11.20;99.90
20483;DHT22;10400;53.198;6.592;2024-03-17T11:30:42;11.40;99.90
20483;DHT22;10400;53.198;6.592;2024-03-17T11:39:02;11.60;99.90
20483;DHT22;10400;53.198;6.592;2024-03-17T11:47:03;11.50;99.90
20483;DHT22;10400;53.198;6.592;2024-03-17T11:49:36;11.60;99.90
20483;DHT22;10400;53.198;6.592;2024-03-17T11:52:08;11.70;99.90
20483;DHT22;10400;53.198;6.592;2024-03-17T11:54:37;11.60;99.90
20483;DHT22;10400;53.198;6.592;2024-03-17T11:59:35;11.70;99.90
20483;DHT22;10400;53.198;6.592;2024-03-17T12:02:06;11.70;99.90
20483;DHT22;10400;53.198;6.592;2024-03-17T12:04:39;11.60;99.90
20483;DHT22;10400;53.198;6.592;2024-03-17T12:07:16;11.70;99.90
20483;DHT22;10400;53.198;6.592;2024-03-17T12:09:42;11.50;99.90
20483;DHT22;10400;53.198;6.592;2024-03-17T12:12:10;11.60;99.90
20483;DHT22;10400;53.198;6.592;2024-03-17T12:14:36;11.60;99.90
20483;DHT22;10400;53.198;6.592;2024-03-17T12:19:30;11.80;99.90
20483;DHT22;10400;53.198;6.592;2024-03-17T12:21:58;11.90;99.90
20483;DHT22;10400;53.198;6.592;2024-03-17T12:24:27;11.90;99.90
20483;DHT22;10400;53.198;6.592;2024-03-17T12:26:55;12.10;99.90
20483;DHT22;10400;53.198;6.592;2024-03-17T12:29:22;12.10;99.90
20483;DHT22;10400;53.198;6.592;2024-03-17T12:31:50;12.10;99.90
20483;DHT22;10400;53.198;6.592;2024-03-17T12:34:16;12.20;99.90
20483;DHT22;10400;53.198;6.592;2024-03-17T12:36:43;12.20;99.90
20483;DHT22;10400;53.198;6.592;2024-03-17T12:39:22;12.30;99.90
20483;DHT22;10400;53.198;6.592;2024-03-17T12:44:47;12.40;99.90
20483;DHT22;10400;53.198;6.592;2024-03-17T12:47:20;12.40;99.90
20483;DHT22;10400;53.198;6.592;2024-03-17T12:49:51;12.40;99.90
20483;DHT22;10400;53.198;6.592;2024-03-17T12:52:24;12.50;99.90
20483;DHT22;10400;53.198;6.592;2024-03-17T12:57:42;12.50;99.90
20483;DHT22;10400;53.198;6.592;2024-03-17T13:00:26;12.40;99.90
20483;DHT22;10400;53.198;6.592;2024-03-17T13:03:02;12.30;99.90
20483;DHT22;10400;53.198;6.592;2024-03-17T13:05:29;12.30;99.90
20483;DHT22;10400;53.198;6.592;2024-03-17T13:07:55;12.30;99.90
20483;DHT22;10400;53.198;6.592;2024-03-17T13:10:23;12.30;99.90
20483;DHT22;10400;53.198;6.592;2024-03-17T13:13:01;12.20;99.90
20483;DHT22;10400;53.198;6.592;2024-03-17T13:15:28;12.20;99.90
20483;DHT22;10400;53.198;6.592;2024-03-17T13:17:57;12.20;99.90
20483;DHT22;10400;53.198;6.592;2024-03-17T13:20:22;12.30;99.90
20483;DHT22;10400;53.198;6.592;2024-03-17T13:22:48;12.20;99.90
20483;DHT22;10400;53.198;6.592;2024-03-17T13:25:17;12.10;99.90
20483;DHT22;10400;53.198;6.592;2024-03-17T13:27:44;12.00;99.90
20483;DHT22;10400;53.198;6.592;2024-03-17T13:30:11;12.00;99.90
20483;DHT22;10400;53.198;6.592;2024-03-17T13:32:37;12.00;99.90
20483;DHT22;10400;53.198;6.592;2024-03-17T13:35:04;12.00;99.90
20483;DHT22;10400;53.198;6.592;2024-03-17T13:37:30;12.00;99.90
20483;DHT22;10400;53.198;6.592;2024-03-17T13:39:56;12.10;99.90
20483;DHT22;10400;53.198;6.592;2024-03-17T13:42:22;12.10;99.90
20483;DHT22;10400;53.198;6.592;2024-03-17T13:44:47;12.10;99.90
20483;DHT22;10400;53.198;6.592;2024-03-17T13:47:16;12.00;99.90
20483;DHT22;10400;53.198;6.592;2024-03-17T13:49:43;12.10;99.90
20483;DHT22;10400;53.198;6.592;2024-03-17T13:52:09;12.10;99.90
20483;DHT22;10400;53.198;6.592;2024-03-17T13:54:35;12.10;99.90
20483;DHT22;10400;53.198;6.592;2024-03-17T13:57:00;12.10;99.90
20483;DHT22;10400;53.198;6.592;2024-03-17T13:59:28;12.10;99.90
20483;DHT22;10400;53.198;6.592;2024-03-17T14:01:54;12.20;99.90
20483;DHT22;10400;53.198;6.592;2024-03-17T14:04:19;12.20;99.90
20483;DHT22;10400;53.198;6.592;2024-03-17T14:06:46;12.20;99.90
20483;DHT22;10400;53.198;6.592;2024-03-17T14:09:15;12.30;99.90
20483;DHT22;10400;53.198;6.592;2024-03-17T14:11:43;12.20;99.90
20483;DHT22;10400;53.198;6.592;2024-03-17T14:14:12;12.20;99.90
20483;DHT22;10400;53.198;6.592;2024-03-17T14:16:38;12.20;99.90
20483;DHT22;10400;53.198;6.592;2024-03-17T14:19:05;12.20;99.90
20483;DHT22;10400;53.198;6.592;2024-03-17T14:21:31;12.20;99.90
20483;DHT22;10400;53.198;6.592;2024-03-17T14:23:57;12.20;99.90
20483;DHT22;10400;53.198;6.592;2024-03-17T14:26:23;12.30;99.90
20483;DHT22;10400;53.198;6.592;2024-03-17T14:28:49;12.20;99.90
20483;DHT22;10400;53.198;6.592;2024-03-17T14:31:16;12.30;99.90
20483;DHT22;10400;53.198;6.592;2024-03-17T14:33:43;12.30;99.90
20483;DHT22;10400;53.198;6.592;2024-03-17T14:36:09;12.30;99.90
20483;DHT22;10400;53.198;6.592;2024-03-17T14:38:35;12.40;99.90
20483;DHT22;10400;53.198;6.592;2024-03-17T14:41:00;12.40;99.90
20483;DHT22;10400;53.198;6.592;2024-03-17T14:43:27;12.30;99.90
20483;DHT22;10400;53.198;6.592;2024-03-17T14:45:52;12.30;99.90
20483;DHT22;10400;53.198;6.592;2024-03-17T14:48:18;12.30;99.90
20483;DHT22;10400;53.198;6.592;2024-03-17T14:50:44;12.20;99.90
20483;DHT22;10400;53.198;6.592;2024-03-17T14:53:10;12.20;99.90
20483;DHT22;10400;53.198;6.592;2024-03-17T14:55:35;12.20;99.90
20483;DHT22;10400;53.198;6.592;2024-03-17T14:58:01;12.10;99.90
20483;DHT22;10400;53.198;6.592;2024-03-17T15:00:28;12.20;99.90
20483;DHT22;10400;53.198;6.592;2024-03-17T15:02:56;12.10;99.90
20483;DHT22;10400;53.198;6.592;2024-03-17T15:05:22;12.10;99.90
20483;DHT22;10400;53.198;6.592;2024-03-17T15:07:50;12.10;99.90
20483;DHT22;10400;53.198;6.592;2024-03-17T15:10:15;12.00;99.90
20483;DHT22;10400;53.198;6.592;2024-03-17T15:12:46;12.00;99.90
20483;DHT22;10400;53.198;6.592;2024-03-17T15:15:12;12.00;99.90
20483;DHT22;10400;53.198;6.592;2024-03-17T15:17:38;12.00;99.90
20483;DHT22;10400;53.198;6.592;2024-03-17T15:20:04;11.90;99.90
20483;DHT22;10400;53.198;6.592;2024-03-17T15:22:45;12.00;99.90
20483;DHT22;10400;53.198;6.592;2024-03-17T15:25:12;12.00;99.90
20483;DHT22;10400;53.198;6.592;2024-03-17T15:27:40;12.00;99.90
20483;DHT22;10400;53.198;6.592;2024-03-17T15:30:07;11.90;99.90
20483;DHT22;10400;53.198;6.592;2024-03-17T15:32:33;11.90;99.90
20483;DHT22;10400;53.198;6.592;2024-03-17T15:34:58;11.90;99.90
20483;DHT22;10400;53.198;6.592;2024-03-17T15:37:26;11.90;99.90
20483;DHT22;10400;53.198;6.592;2024-03-17T15:39:51;12.00;99.90
20483;DHT22;10400;53.198;6.592;2024-03-17T15:42:17;12.00;99.90
20483;DHT22;10400;53.198;6.592;2024-03-17T15:44:45;12.00;99.90
20483;DHT22;10400;53.198;6.592;2024-03-17T15:47:11;11.90;99.90
20483;DHT22;10400;53.198;6.592;2024-03-17T15:49:36;11.90;99.90
20483;DHT22;10400;53.198;6.592;2024-03-17T15:52:02;11.90;99.90
20483;DHT22;10400;53.198;6.592;2024-03-17T15:54:28;11.90;99.90
20483;DHT22;10400;53.198;6.592;2024-03-17T15:56:55;11.90;99.90
20483;DHT22;10400;53.198;6.592;2024-03-17T15:59:20;11.90;99.90
20483;DHT22;10400;53.198;6.592;2024-03-17T16:01:48;11.90;99.90
20483;DHT22;10400;53.198;6.592;2024-03-17T16:04:17;11.90;99.90
20483;DHT22;10400;53.198;6.592;2024-03-17T16:06:44;11.80;99.90
20483;DHT22;10400;53.198;6.592;2024-03-17T16:09:13;11.80;99.90
20483;DHT22;10400;53.198;6.592;2024-03-17T16:11:39;11.80;99.90
20483;DHT22;10400;53.198;6.592;2024-03-17T16:14:06;11.90;99.90
20483;DHT22;10400;53.198;6.592;2024-03-17T16:16:33;11.90;99.90